Terminal Aerodrome Forecast
Issued by NWS

Home | Current Version | Previous Version | Text Only | Print | Product List | Glossary On
Versions: 1 2 3 4 5 6 7 8 9
896
FTUS45 KVEF 230520
TAFHND
TAF
KHND 230520Z 2306/2406 17006KT P6SM SCT250
     FM231600 20015G25KT P6SM SCT250
     FM231900 22024G34KT P6SM SCT250
     FM240200 23015G25KT P6SM SCT250
     FM240400 23014KT P6SM SCT250=

USA.gov is the U.S. government's official web portal to all federal, state and local government web resources and services.